Time;durP1;ratioP1;P1;durP2;ratioP2;P2;SDS_P1;SDS_P2;PMS_P1;PMS_P2;Temp;Humidity;BMP_temperature;BMP_pressure;BME280_temperature;BME280_humidity;BME280_pressure;Samples;Min_cycle;Max_cycle;Signal;HPM_P1;HPM_P2
2022/10/17 00:00:37;;;;;;;10.40;6.20;;;13.40;99.90;;;;;;5070220;28;20040;-54
2022/10/17 00:03:03;;;;;;;10.10;5.60;;;13.40;99.90;;;;;;5055589;28;20275;-58
2022/10/17 00:05:28;;;;;;;9.90;6.45;;;13.40;99.90;;;;;;5069918;28;20358;-55
2022/10/17 00:07:54;;;;;;;10.17;6.47;;;13.40;99.90;;;;;;5069064;28;20040;-57
2022/10/17 00:10:20;;;;;;;9.20;6.20;;;13.40;99.90;;;;;;5052731;28;20290;-57
2022/10/17 00:12:45;;;;;;;8.38;6.03;;;13.40;99.90;;;;;;5050487;28;20040;-57
2022/10/17 00:15:15;;;;;;;9.60;5.15;;;13.40;99.90;;;;;;5063911;28;20032;-55
2022/10/17 00:17:41;;;;;;;8.88;6.15;;;13.30;99.90;;;;;;5056027;28;20036;-55
2022/10/17 00:20:07;;;;;;;8.57;6.17;;;13.30;99.90;;;;;;5054340;28;20062;-56
2022/10/17 00:22:32;;;;;;;10.32;6.05;;;13.30;99.90;;;;;;5050572;28;20282;-57
2022/10/17 00:24:58;;;;;;;11.77;5.63;;;13.30;99.90;;;;;;5063551;28;20036;-57
2022/10/17 00:27:24;;;;;;;12.48;5.50;;;13.30;99.90;;;;;;5068781;28;20103;-56
2022/10/17 00:29:50;;;;;;;10.73;6.07;;;13.30;99.90;;;;;;5058503;28;20126;-57
2022/10/17 00:32:16;;;;;;;12.35;6.70;;;13.30;99.90;;;;;;5052903;28;20286;-57
2022/10/17 00:34:41;;;;;;;10.43;6.32;;;13.30;99.90;;;;;;5064327;28;20052;-56
2022/10/17 00:37:07;;;;;;;13.00;6.17;;;13.30;99.90;;;;;;5069766;28;20024;-55
2022/10/17 00:39:33;;;;;;;11.10;6.60;;;13.20;99.90;;;;;;5061533;28;20116;-55
2022/10/17 00:41:58;;;;;;;10.20;7.20;;;13.20;99.90;;;;;;5057703;28;20344;-54
2022/10/17 00:44:30;;;;;;;8.07;6.70;;;13.20;99.90;;;;;;5061792;28;20275;-56
2022/10/17 00:47:03;;;;;;;13.73;7.53;;;13.20;99.90;;;;;;5049675;28;20044;-55
2022/10/17 00:49:32;;;;;;;14.52;7.38;;;13.30;99.90;;;;;;5051581;28;20032;-58
2022/10/17 00:52:02;;;;;;;13.90;7.22;;;13.30;99.90;;;;;;5052905;28;20041;-58
2022/10/17 00:54:33;;;;;;;8.73;7.82;;;13.30;99.90;;;;;;5060181;28;20040;-57
2022/10/17 00:57:00;;;;;;;8.70;7.82;;;13.30;99.90;;;;;;5069505;28;20401;-54
2022/10/17 00:59:27;;;;;;;8.95;6.85;;;13.30;99.90;;;;;;5064536;28;20033;-57
2022/10/17 01:02:04;;;;;;;9.30;7.82;;;13.30;99.90;;;;;;5049931;28;20440;-55
2022/10/17 01:04:30;;;;;;;8.27;7.10;;;13.30;99.90;;;;;;5062961;28;20037;-58
2022/10/17 01:06:56;;;;;;;12.13;7.97;;;13.20;99.90;;;;;;5048728;28;20095;-54
2022/10/17 01:09:22;;;;;;;11.93;7.70;;;13.20;99.90;;;;;;5051079;28;20092;-56
2022/10/17 01:11:50;;;;;;;9.00;7.63;;;13.10;99.90;;;;;;5068676;28;20105;-55
2022/10/17 01:14:34;;;;;;;8.75;7.85;;;13.10;99.90;;;;;;5066351;28;20076;-57
2022/10/17 01:17:10;;;;;;;13.98;7.18;;;13.10;99.90;;;;;;5049866;28;20037;-56
2022/10/17 01:20:09;;;;;;;8.68;7.82;;;13.10;99.90;;;;;;5050510;28;21122;-58
2022/10/17 01:22:54;;;;;;;11.52;7.68;;;13.00;99.90;;;;;;5060297;28;20044;-57
2022/10/17 01:25:26;;;;;;;11.05;7.53;;;13.00;99.90;;;;;;5057955;28;20526;-58
2022/10/17 01:28:10;;;;;;;9.10;7.70;;;13.00;99.90;;;;;;5049752;28;20041;-57
2022/10/17 01:30:56;;;;;;;12.88;8.55;;;12.90;99.90;;;;;;5069035;28;20401;-57
2022/10/17 01:33:39;;;;;;;9.07;8.18;;;12.90;99.90;;;;;;5053325;28;20119;-55
2022/10/17 01:36:12;;;;;;;12.90;9.32;;;12.90;99.90;;;;;;5056809;28;20072;-57
2022/10/17 01:38:47;;;;;;;13.32;9.63;;;12.90;99.90;;;;;;5063299;28;20114;-58
2022/10/17 01:41:44;;;;;;;12.52;8.43;;;12.90;99.90;;;;;;5052694;28;20040;-55
2022/10/17 01:44:21;;;;;;;10.52;9.13;;;12.80;99.90;;;;;;5053606;28;20048;-58
2022/10/17 01:46:51;;;;;;;;;;;12.80;99.90;;;;;;5054880;28;20453;-57
2022/10/17 01:49:23;;;;;;;12.80;9.80;;;12.80;99.90;;;;;;5055186;28;19920;-57
2022/10/17 01:51:53;;;;;;;14.52;10.30;;;12.80;99.90;;;;;;5073293;28;20051;-56
2022/10/17 01:54:24;;;;;;;15.43;9.52;;;12.70;99.90;;;;;;5068947;28;20047;-57
2022/10/17 01:56:55;;;;;;;14.75;10.15;;;12.70;99.90;;;;;;5053340;28;20041;-58
2022/10/17 01:59:28;;;;;;;10.60;9.35;;;12.70;99.90;;;;;;5056703;28;20048;-56
2022/10/17 02:01:57;;;;;;;15.73;10.50;;;12.70;99.90;;;;;;5062642;28;20125;-57
2022/10/17 02:04:23;;;;;;;12.73;11.15;;;12.70;99.90;;;;;;5056486;28;20418;-54
2022/10/17 02:06:49;;;;;;;13.05;11.82;;;12.60;99.90;;;;;;5071000;28;20097;-56
2022/10/17 02:09:23;;;;;;;21.50;14.40;;;12.60;99.90;;;;;;5069480;28;20033;-57
2022/10/17 02:12:08;;;;;;;14.75;13.27;;;12.60;99.90;;;;;;5072622;28;20080;-58
2022/10/17 02:14:47;;;;;;;19.65;13.95;;;12.70;99.90;;;;;;5069873;28;20045;-54
2022/10/17 02:17:36;;;;;;;16.52;13.65;;;12.70;99.90;;;;;;5061689;28;20047;-58
2022/10/17 02:20:23;;;;;;;15.05;13.57;;;12.70;99.90;;;;;;5064859;28;20525;-57
2022/10/17 02:22:51;;;;;;;16.50;13.25;;;12.80;99.90;;;;;;5070837;28;20047;-58
2022/10/17 02:25:33;;;;;;;15.80;12.82;;;12.80;99.90;;;;;;5059853;28;20048;-55
2022/10/17 02:28:27;;;;;;;20.40;14.45;;;12.80;99.90;;;;;;5068283;28;20048;-54
2022/10/17 02:31:07;;;;;;;15.13;13.65;;;12.80;99.90;;;;;;5057741;28;20397;-57
2022/10/17 02:33:45;;;;;;;16.65;14.85;;;12.80;99.90;;;;;;5052124;28;20048;-58
2022/10/17 02:36:18;;;;;;;20.35;14.75;;;12.80;99.90;;;;;;5069658;28;20067;-56
2022/10/17 02:38:45;;;;;;;18.05;15.43;;;12.80;99.90;;;;;;5055584;28;20047;-53
2022/10/17 02:41:14;;;;;;;18.88;15.85;;;12.80;99.90;;;;;;5062580;28;20094;-57
2022/10/17 02:43:44;;;;;;;17.20;14.88;;;12.80;99.90;;;;;;5051125;28;20410;-55
2022/10/17 02:46:11;;;;;;;16.88;14.68;;;12.80;99.90;;;;;;5068016;28;20112;-57
2022/10/17 02:48:43;;;;;;;24.42;14.85;;;12.80;99.90;;;;;;5061269;28;20041;-57
2022/10/17 02:51:41;;;;;;;19.60;16.60;;;12.80;99.90;;;;;;5066689;28;20398;-54
2022/10/17 02:54:06;;;;;;;;;;;12.90;99.90;;;;;;5071274;28;20040;-55
2022/10/17 02:56:41;;;;;;;22.13;16.65;;;12.90;99.90;;;;;;5055795;28;19970;-58
2022/10/17 02:59:11;;;;;;;17.15;15.23;;;12.90;99.90;;;;;;5063072;28;20032;-55
2022/10/17 03:01:36;;;;;;;17.30;15.63;;;12.90;99.90;;;;;;5053580;28;20033;-55
2022/10/17 03:04:10;;;;;;;19.02;15.05;;;12.90;99.90;;;;;;5070343;28;20044;-58
2022/10/17 03:06:37;;;;;;;20.27;16.20;;;12.90;99.90;;;;;;5069219;28;20031;-55
2022/10/17 03:09:03;;;;;;;18.13;15.82;;;12.90;99.90;;;;;;5064936;28;20065;-56
2022/10/17 03:11:28;;;;;;;21.33;14.27;;;12.90;99.90;;;;;;5051706;28;20064;-55
2022/10/17 03:13:54;;;;;;;17.10;15.23;;;12.90;99.90;;;;;;5068574;28;20037;-54
2022/10/17 03:16:19;;;;;;;17.13;15.52;;;12.90;99.90;;;;;;5070069;28;20045;-55
2022/10/17 03:18:45;;;;;;;18.50;16.20;;;12.90;99.90;;;;;;5054345;28;20398;-56
2022/10/17 03:21:10;;;;;;;18.50;16.57;;;12.90;99.90;;;;;;5051308;28;20641;-57
2022/10/17 03:23:36;;;;;;;16.45;14.77;;;12.90;99.90;;;;;;5058187;28;20109;-56
2022/10/17 03:26:03;;;;;;;27.83;16.47;;;12.90;99.90;;;;;;5051370;28;20041;-57
2022/10/17 03:28:29;;;;;;;17.60;15.25;;;12.90;99.90;;;;;;5063419;28;20680;-55
2022/10/17 03:30:54;;;;;;;18.37;16.40;;;12.90;99.90;;;;;;5066050;28;20045;-56
2022/10/17 03:33:20;;;;;;;20.73;16.33;;;12.90;99.90;;;;;;5058220;28;20044;-57
2022/10/17 03:35:45;;;;;;;17.48;15.68;;;12.90;99.90;;;;;;5032876;28;20041;-57
2022/10/17 03:38:11;;;;;;;17.93;16.03;;;12.90;99.90;;;;;;5057387;28;20028;-57
2022/10/17 03:40:36;;;;;;;20.60;15.05;;;12.90;99.90;;;;;;5052248;28;20061;-54
2022/10/17 03:43:02;;;;;;;15.93;14.27;;;12.90;99.90;;;;;;5052510;28;20040;-56
2022/10/17 03:45:28;;;;;;;17.17;13.93;;;12.90;99.90;;;;;;5051552;28;20033;-57
2022/10/17 03:47:53;;;;;;;18.63;16.53;;;12.90;99.90;;;;;;5058131;28;20585;-57
2022/10/17 03:50:19;;;;;;;20.87;15.27;;;12.90;99.90;;;;;;5067612;28;20358;-55
2022/10/17 03:52:48;;;;;;;19.63;16.00;;;12.90;99.90;;;;;;5064884;28;20048;-58
2022/10/17 03:55:14;;;;;;;21.33;16.42;;;12.80;99.90;;;;;;5050809;28;20449;-55
2022/10/17 03:57:40;;;;;;;;;;;12.80;99.90;;;;;;5057096;28;20126;-58
2022/10/17 04:00:06;;;;;;;19.63;16.50;;;12.80;99.90;;;;;;5059910;28;19956;-55
2022/10/17 04:02:33;;;;;;;18.00;16.10;;;12.80;99.90;;;;;;5065839;28;20029;-54
2022/10/17 04:04:59;;;;;;;17.73;15.82;;;12.80;99.90;;;;;;5058300;28;20049;-58
2022/10/17 04:07:25;;;;;;;18.83;16.92;;;12.80;99.90;;;;;;5051151;28;20044;-57
2022/10/17 04:09:50;;;;;;;27.50;18.07;;;12.80;99.90;;;;;;5070410;28;20070;-57
2022/10/17 04:12:16;;;;;;;21.37;17.27;;;12.70;99.90;;;;;;5057758;28;20702;-57
2022/10/17 04:14:41;;;;;;;23.60;17.53;;;12.80;99.90;;;;;;5067033;28;20056;-58
2022/10/17 04:17:07;;;;;;;19.38;17.30;;;12.80;99.90;;;;;;5070455;28;20287;-54
2022/10/17 04:19:32;;;;;;;19.63;17.53;;;12.80;99.90;;;;;;5058603;28;20405;-55
2022/10/17 04:21:58;;;;;;;23.23;17.15;;;12.80;99.90;;;;;;5054610;28;20494;-57
2022/10/17 04:24:24;;;;;;;19.90;17.60;;;12.80;99.90;;;;;;5081939;28;20049;-58
2022/10/17 04:26:50;;;;;;;;;;;12.90;99.90;;;;;;5061673;28;20372;-54
2022/10/17 04:29:16;;;;;;;24.60;18.38;;;12.90;99.90;;;;;;5053744;28;20518;-58
2022/10/17 04:31:41;;;;;;;24.77;18.10;;;12.80;99.90;;;;;;5057284;28;20419;-58
2022/10/17 04:34:07;;;;;;;25.17;19.20;;;12.80;99.90;;;;;;5065238;28;20040;-55
2022/10/17 04:36:32;;;;;;;24.77;19.37;;;12.80;99.90;;;;;;5062655;28;20044;-55
2022/10/17 04:39:01;;;;;;;21.77;19.30;;;12.90;99.90;;;;;;5050625;28;20546;-58
2022/10/17 04:41:27;;;;;;;24.00;19.35;;;12.90;99.90;;;;;;5062178;28;20421;-60
2022/10/17 04:43:52;;;;;;;22.90;20.07;;;12.90;99.90;;;;;;5066310;28;20052;-58
2022/10/17 04:46:18;;;;;;;21.50;19.20;;;12.90;99.90;;;;;;5055434;28;20036;-56
2022/10/17 04:48:43;;;;;;;21.53;19.27;;;12.90;99.90;;;;;;5050220;28;20037;-58
2022/10/17 04:51:13;;;;;;;26.85;19.65;;;12.90;99.90;;;;;;5063414;28;20279;-57
2022/10/17 04:53:40;;;;;;;28.42;19.98;;;12.90;99.90;;;;;;5068858;28;20078;-57
2022/10/17 04:56:22;;;;;;;24.45;18.73;;;12.90;99.90;;;;;;5061120;28;20045;-57
2022/10/17 04:58:49;;;;;;;25.60;20.30;;;12.90;99.90;;;;;;5051517;28;20029;-54
2022/10/17 05:01:18;;;;;;;27.00;20.48;;;12.90;99.90;;;;;;5062255;28;20040;-57
2022/10/17 05:03:44;;;;;;;27.08;20.40;;;12.90;99.90;;;;;;5069484;28;20040;-58
2022/10/17 05:06:12;;;;;;;27.55;20.80;;;12.90;99.90;;;;;;5073502;28;20174;-57
2022/10/17 05:08:38;;;;;;;25.23;19.48;;;12.90;99.90;;;;;;5068884;28;20037;-57
2022/10/17 05:11:05;;;;;;;25.48;20.23;;;12.90;99.90;;;;;;5069332;28;20381;-58
2022/10/17 05:13:32;;;;;;;26.08;21.65;;;13.00;99.90;;;;;;5073262;28;20301;-57
2022/10/17 05:15:59;;;;;;;36.08;21.50;;;13.00;99.90;;;;;;5058978;28;20106;-54
2022/10/17 05:18:26;;;;;;;25.08;21.17;;;13.00;99.90;;;;;;5054428;28;20049;-57
2022/10/17 05:20:51;;;;;;;26.90;21.33;;;13.00;99.90;;;;;;5061438;28;20116;-58
2022/10/17 05:23:17;;;;;;;24.37;21.77;;;13.10;99.90;;;;;;5072315;28;20121;-56
2022/10/17 05:25:42;;;;;;;24.60;21.77;;;13.20;99.90;;;;;;5067128;28;20824;-58
2022/10/17 05:28:08;;;;;;;24.60;21.38;;;13.20;99.90;;;;;;5066323;28;20456;-55
2022/10/17 05:30:35;;;;;;;26.58;19.67;;;13.30;99.90;;;;;;5067932;28;20032;-57
2022/10/17 05:33:01;;;;;;;27.20;19.55;;;13.30;99.90;;;;;;5073254;28;20048;-55
2022/10/17 05:35:26;;;;;;;36.92;20.20;;;13.30;99.90;;;;;;5061907;28;20036;-54
2022/10/17 05:37:52;;;;;;;26.95;19.85;;;13.30;99.90;;;;;;5069459;28;20494;-56
2022/10/17 05:40:17;;;;;;;26.20;19.67;;;13.40;99.90;;;;;;5061231;28;20059;-57
2022/10/17 05:42:47;;;;;;;22.75;19.45;;;13.40;99.90;;;;;;5059427;28;20334;-57
2022/10/17 05:45:14;;;;;;;23.88;20.60;;;13.50;99.90;;;;;;5053863;28;20056;-57
2022/10/17 05:47:39;;;;;;;;;;;13.50;99.90;;;;;;5053628;28;20513;-55
2022/10/17 05:50:05;;;;;;;25.83;19.58;;;13.50;99.90;;;;;;5069500;28;19966;-57
2022/10/17 05:52:31;;;;;;;;;;;13.50;99.90;;;;;;5073695;28;20041;-55
2022/10/17 05:54:56;;;;;;;23.90;19.63;;;13.60;99.90;;;;;;5072711;28;19927;-57
2022/10/17 05:57:24;;;;;;;21.52;18.23;;;13.60;99.90;;;;;;5054834;28;20083;-56
2022/10/17 05:59:50;;;;;;;23.58;19.50;;;13.60;99.90;;;;;;5052989;28;20052;-57
2022/10/17 06:02:16;;;;;;;28.45;18.25;;;13.60;99.90;;;;;;5056710;28;20107;-57
2022/10/17 06:04:44;;;;;;;23.58;18.38;;;13.60;99.90;;;;;;5071876;28;20052;-56
2022/10/17 06:07:14;;;;;;;24.05;15.98;;;13.70;99.90;;;;;;5066582;28;20040;-54
2022/10/17 06:09:40;;;;;;;22.92;17.40;;;13.80;99.90;;;;;;5065505;28;20040;-57
2022/10/17 06:12:06;;;;;;;19.83;15.82;;;13.90;99.90;;;;;;5052995;28;20401;-56
2022/10/17 06:14:31;;;;;;;20.92;15.05;;;14.10;99.90;;;;;;5057795;28;20037;-56
2022/10/17 06:16:58;;;;;;;18.35;15.48;;;14.20;99.90;;;;;;5067644;28;20036;-57
2022/10/17 06:19:23;;;;;;;18.67;13.10;;;14.30;99.90;;;;;;5058774;28;20393;-57
2022/10/17 06:21:49;;;;;;;19.63;13.60;;;14.40;99.90;;;;;;5070065;28;20044;-55
2022/10/17 06:24:14;;;;;;;17.92;13.80;;;14.60;99.90;;;;;;5071937;28;20044;-55
2022/10/17 06:26:40;;;;;;;14.03;12.57;;;14.70;99.90;;;;;;5064130;28;20608;-58
2022/10/17 06:29:05;;;;;;;13.70;11.65;;;14.80;99.90;;;;;;5059259;28;20366;-56
2022/10/17 06:31:31;;;;;;;16.17;11.48;;;14.90;99.90;;;;;;5072421;28;20520;-56
2022/10/17 06:33:57;;;;;;;15.10;10.27;;;15.10;99.90;;;;;;5061653;28;20410;-58
2022/10/17 06:36:22;;;;;;;15.77;10.50;;;15.30;99.90;;;;;;5059650;28;20032;-58
2022/10/17 06:38:48;;;;;;;13.77;10.32;;;15.50;99.90;;;;;;5065757;28;20040;-58
2022/10/17 06:41:17;;;;;;;11.03;9.67;;;15.70;99.90;;;;;;5071794;28;20448;-58
2022/10/17 06:43:47;;;;;;;12.98;10.00;;;15.80;99.90;;;;;;5059309;28;20296;-57
2022/10/17 06:46:17;;;;;;;13.00;8.85;;;15.90;99.90;;;;;;5057693;28;20053;-58
2022/10/17 06:48:43;;;;;;;10.85;9.10;;;16.00;99.90;;;;;;5080932;28;20072;-57
2022/10/17 06:51:10;;;;;;;13.18;9.52;;;16.10;99.90;;;;;;5056462;28;20072;-57
2022/10/17 06:53:37;;;;;;;14.07;8.75;;;16.10;99.90;;;;;;5062342;28;20040;-57
2022/10/17 06:56:04;;;;;;;14.57;9.50;;;16.20;99.90;;;;;;5066378;28;20414;-58
2022/10/17 06:58:31;;;;;;;10.32;9.05;;;16.20;99.90;;;;;;5070465;28;20039;-58
2022/10/17 07:01:02;;;;;;;10.95;8.55;;;16.30;99.90;;;;;;5065320;28;20033;-57
2022/10/17 07:03:28;;;;;;;13.20;9.30;;;16.30;99.90;;;;;;5059477;28;20029;-56
2022/10/17 07:05:54;;;;;;;9.20;8.15;;;16.50;99.90;;;;;;5070188;28;20132;-54
2022/10/17 07:08:20;;;;;;;;;;;16.60;99.90;;;;;;5063269;28;20036;-58
2022/10/17 07:10:45;;;;;;;9.50;7.43;;;16.70;99.90;;;;;;5051423;28;19938;-57
2022/10/17 07:13:11;;;;;;;12.35;7.35;;;16.70;99.90;;;;;;5056999;28;20039;-55
2022/10/17 07:15:37;;;;;;;13.70;7.95;;;16.80;99.90;;;;;;5071496;28;20486;-58
2022/10/17 07:18:03;;;;;;;;;;;16.80;99.90;;;;;;5065597;28;20105;-57
2022/10/17 07:20:29;;;;;;;10.80;7.95;;;16.80;99.90;;;;;;5071932;28;19916;-58
2022/10/17 07:22:54;;;;;;;8.18;7.38;;;16.80;99.90;;;;;;5064051;28;20037;-57
2022/10/17 07:25:20;;;;;;;10.52;7.22;;;16.80;99.90;;;;;;5057056;28;20040;-58
2022/10/17 07:27:47;;;;;;;10.30;6.72;;;16.90;99.90;;;;;;5073206;28;20035;-58
2022/10/17 07:30:13;;;;;;;12.68;7.47;;;17.10;99.90;;;;;;5057085;28;20523;-58
2022/10/17 07:32:38;;;;;;;10.95;7.18;;;17.20;99.90;;;;;;5069986;28;20044;-59
2022/10/17 07:35:04;;;;;;;12.20;7.10;;;17.20;99.90;;;;;;5059794;28;20115;-59
2022/10/17 07:37:30;;;;;;;10.45;7.18;;;17.30;99.90;;;;;;5061363;28;20497;-57
2022/10/17 07:39:55;;;;;;;15.35;7.57;;;17.40;99.90;;;;;;5055396;28;20509;-56
2022/10/17 07:42:22;;;;;;;9.52;6.75;;;17.50;99.90;;;;;;5070466;28;20043;-57
2022/10/17 07:44:47;;;;;;;13.25;7.65;;;17.50;99.90;;;;;;5060006;28;20517;-59
2022/10/17 07:47:13;;;;;;;11.48;6.85;;;17.50;99.90;;;;;;5059003;28;20088;-58
2022/10/17 07:49:43;;;;;;;9.02;7.72;;;17.50;99.90;;;;;;5048179;28;20044;-59
2022/10/17 07:52:10;;;;;;;6.13;5.47;;;17.50;99.90;;;;;;5052505;28;20506;-59
2022/10/17 07:54:36;;;;;;;8.43;6.90;;;17.50;99.90;;;;;;5062771;28;20036;-59
2022/10/17 07:57:02;;;;;;;10.80;6.25;;;17.50;99.90;;;;;;5064014;28;20064;-58
2022/10/17 07:59:27;;;;;;;8.73;5.93;;;17.50;99.90;;;;;;5056010;28;20079;-59
2022/10/17 08:01:56;;;;;;;8.60;6.80;;;17.40;99.90;;;;;;5052261;28;20135;-60
2022/10/17 08:04:22;;;;;;;7.63;6.82;;;17.40;99.90;;;;;;5052877;28;20028;-60
2022/10/17 08:06:48;;;;;;;10.73;5.63;;;17.40;99.90;;;;;;5052007;28;20351;-59
2022/10/17 08:09:14;;;;;;;7.03;6.05;;;17.40;99.90;;;;;;5057192;28;20413;-59
2022/10/17 08:11:42;;;;;;;7.65;5.53;;;17.40;99.90;;;;;;5064559;28;20032;-59
2022/10/17 08:14:09;;;;;;;8.35;6.85;;;17.40;99.90;;;;;;5056552;28;20072;-59
2022/10/17 08:16:35;;;;;;;9.00;6.07;;;17.50;99.90;;;;;;5052098;28;20095;-58
2022/10/17 08:19:01;;;;;;;6.35;5.43;;;17.50;99.90;;;;;;5061613;28;20032;-59
2022/10/17 08:21:26;;;;;;;8.30;6.60;;;17.60;99.90;;;;;;5051306;28;20036;-60
2022/10/17 08:23:52;;;;;;;8.25;6.00;;;17.60;99.90;;;;;;5054719;28;20436;-58
2022/10/17 08:26:18;;;;;;;8.02;5.78;;;17.60;99.90;;;;;;5056982;28;20131;-58
2022/10/17 08:28:44;;;;;;;;;;;17.70;99.90;;;;;;5049514;28;20045;-59
2022/10/17 08:31:18;;;;;;;10.45;6.07;;;17.70;99.90;;;;;;5045809;28;20405;-58
2022/10/17 08:33:45;;;;;;;9.27;5.57;;;17.70;99.90;;;;;;5049868;28;20076;-58
2022/10/17 08:36:13;;;;;;;7.40;5.55;;;17.80;99.90;;;;;;5052695;28;20233;-58
2022/10/17 08:38:41;;;;;;;11.40;5.88;;;17.80;99.90;;;;;;5056147;28;20037;-59
2022/10/17 08:41:39;;;;;;;9.38;6.13;;;17.80;99.90;;;;;;5044838;28;20111;-58
2022/10/17 08:44:16;;;;;;;10.95;6.22;;;17.80;99.90;;;;;;5055653;28;20049;-59
2022/10/17 08:46:45;;;;;;;8.23;5.85;;;17.80;99.90;;;;;;5046686;28;20435;-59
2022/10/17 08:49:39;;;;;;;8.07;6.43;;;17.80;99.90;;;;;;5049607;28;20379;-59
2022/10/17 08:52:14;;;;;;;7.90;5.85;;;17.80;99.90;;;;;;5051545;28;20047;-59
2022/10/17 08:54:44;;;;;;;10.02;6.22;;;17.80;99.90;;;;;;5054201;28;20241;-59
2022/10/17 08:57:12;;;;;;;7.28;6.20;;;17.80;99.90;;;;;;5055299;28;20509;-59
2022/10/17 08:59:38;;;;;;;10.45;5.88;;;17.80;99.90;;;;;;5045471;28;20406;-58
2022/10/17 09:02:36;;;;;;;7.80;6.55;;;17.80;99.90;;;;;;5046744;28;20033;-57
2022/10/17 09:05:09;;;;;;;6.57;5.80;;;17.80;99.90;;;;;;5049138;28;20442;-57
2022/10/17 09:07:48;;;;;;;10.68;6.20;;;17.80;99.90;;;;;;5052180;28;20033;-58
2022/10/17 09:10:45;;;;;;;10.20;6.85;;;17.80;99.90;;;;;;5056575;28;20174;-57
2022/10/17 09:13:35;;;;;;;9.27;6.43;;;17.70;99.90;;;;;;5051355;28;20401;-58
2022/10/17 09:16:29;;;;;;;8.65;6.00;;;17.80;99.90;;;;;;5045909;28;20037;-58
2022/10/17 09:19:14;;;;;;;11.35;6.70;;;17.70;99.90;;;;;;5047379;28;20570;-58
2022/10/17 09:21:45;;;;;;;9.23;5.93;;;17.80;99.90;;;;;;5044126;28;20032;-59
2022/10/17 09:24:24;;;;;;;9.98;6.50;;;17.80;99.90;;;;;;5048394;28;20443;-59
2022/10/17 09:26:50;;;;;;;9.50;5.90;;;17.80;99.90;;;;;;5046955;28;20045;-59
2022/10/17 09:29:20;;;;;;;;;;;17.90;99.90;;;;;;5054401;28;20022;-57
2022/10/17 09:31:55;;;;;;;8.32;6.50;;;17.90;99.90;;;;;;5054438;28;19917;-58
2022/10/17 09:34:22;;;;;;;11.82;6.57;;;17.90;99.90;;;;;;5043343;28;20141;-59
2022/10/17 09:36:47;;;;;;;9.38;6.78;;;17.90;99.90;;;;;;5051786;28;20044;-58
2022/10/17 09:39:17;;;;;;;6.60;5.90;;;17.90;99.90;;;;;;5049948;28;20043;-58
2022/10/17 09:41:53;;;;;;;12.75;7.15;;;18.00;99.90;;;;;;5047764;28;20094;-58
2022/10/17 09:44:23;;;;;;;12.20;7.60;;;18.00;99.90;;;;;;5053735;28;20497;-58
2022/10/17 09:47:04;;;;;;;9.10;6.15;;;18.00;99.90;;;;;;5048821;28;20128;-59
2022/10/17 09:49:34;;;;;;;11.55;6.30;;;18.00;99.90;;;;;;5053943;28;20481;-56
2022/10/17 09:52:03;;;;;;;9.77;6.05;;;18.10;99.90;;;;;;5053500;28;20037;-58
2022/10/17 09:54:38;;;;;;;10.65;6.72;;;18.10;99.90;;;;;;5055756;28;20049;-59
2022/10/17 09:57:06;;;;;;;7.57;6.05;;;18.00;99.90;;;;;;5055643;28;20076;-57
2022/10/17 09:59:45;;;;;;;9.65;5.93;;;18.00;99.90;;;;;;5059298;28;20992;-58
2022/10/17 10:02:21;;;;;;;13.60;7.18;;;17.90;99.90;;;;;;5056670;28;20037;-59
2022/10/17 10:05:24;;;;;;;9.43;6.33;;;17.80;99.90;;;;;;5057481;28;20073;-58
2022/10/17 10:08:13;;;;;;;8.63;6.63;;;17.80;99.90;;;;;;5052276;28;20049;-59
2022/10/17 10:10:42;;;;;;;9.25;8.13;;;17.60;99.90;;;;;;5057850;28;20102;-58
2022/10/17 10:13:13;;;;;;;11.70;8.77;;;17.60;99.90;;;;;;5056241;28;20048;-59
2022/10/17 10:15:41;;;;;;;12.63;8.13;;;17.50;99.90;;;;;;5058651;28;20255;-58
2022/10/17 10:18:34;;;;;;;10.57;7.70;;;17.40;99.90;;;;;;5057971;28;20040;-57
2022/10/17 10:21:29;;;;;;;9.18;8.27;;;17.30;99.90;;;;;;5056663;28;20049;-59
2022/10/17 10:24:14;;;;;;;9.43;8.20;;;17.20;99.90;;;;;;5051145;28;20254;-58
2022/10/17 10:26:45;;;;;;;15.32;8.27;;;17.20;99.90;;;;;;5055987;28;20397;-58
2022/10/17 10:29:33;;;;;;;11.40;9.77;;;17.10;99.90;;;;;;5060173;28;20037;-58
2022/10/17 10:32:12;;;;;;;12.30;9.98;;;17.10;99.90;;;;;;5056552;28;20068;-59
2022/10/17 10:34:47;;;;;;;15.02;10.18;;;17.00;99.90;;;;;;5055138;28;20045;-58
2022/10/17 10:37:23;;;;;;;13.90;10.10;;;17.00;99.90;;;;;;5053842;28;20115;-58
2022/10/17 10:40:01;;;;;;;16.15;11.52;;;17.00;99.90;;;;;;5054745;28;20075;-58
2022/10/17 10:42:36;;;;;;;11.43;10.10;;;16.90;99.90;;;;;;5054335;28;20359;-58
2022/10/17 10:45:20;;;;;;;19.23;11.70;;;16.90;99.90;;;;;;5057424;28;20032;-59
2022/10/17 10:47:55;;;;;;;16.02;11.73;;;16.80;99.90;;;;;;5051746;28;20048;-59
2022/10/17 10:50:43;;;;;;;14.63;10.93;;;16.80;99.90;;;;;;5054991;28;20502;-58
2022/10/17 10:53:33;;;;;;;12.15;10.93;;;16.80;99.90;;;;;;5056378;28;20080;-58
2022/10/17 10:56:03;;;;;;;13.52;11.52;;;16.70;99.90;;;;;;5055350;28;20048;-58
2022/10/17 10:58:32;;;;;;;13.23;11.82;;;16.70;99.90;;;;;;5056119;28;20043;-57
2022/10/17 11:01:04;;;;;;;13.25;11.85;;;16.70;99.90;;;;;;5057013;28;20037;-59
2022/10/17 11:03:44;;;;;;;15.57;12.00;;;16.70;99.90;;;;;;5055009;28;20041;-59
2022/10/17 11:06:22;;;;;;;14.52;12.85;;;16.70;99.90;;;;;;5058179;28;20490;-56
2022/10/17 11:09:02;;;;;;;17.13;13.15;;;16.70;99.90;;;;;;5055475;28;20045;-58
2022/10/17 11:11:49;;;;;;;19.17;14.70;;;16.70;99.90;;;;;;5056466;28;20040;-59
2022/10/17 11:14:38;;;;;;;15.18;12.63;;;16.70;99.90;;;;;;5053817;28;20040;-58
2022/10/17 11:17:33;;;;;;;11.82;10.63;;;16.70;99.90;;;;;;5053596;28;20301;-58
2022/10/17 11:20:08;;;;;;;11.52;9.82;;;16.70;99.90;;;;;;5052707;28;20064;-59
2022/10/17 11:22:48;;;;;;;11.60;9.95;;;16.70;99.90;;;;;;5054533;28;20573;-59
2022/10/17 11:25:30;;;;;;;13.13;10.20;;;16.80;99.90;;;;;;5052732;28;20048;-56
2022/10/17 11:27:56;;;;;;;18.80;10.88;;;16.80;99.90;;;;;;5054245;28;20464;-58
2022/10/17 11:30:25;;;;;;;12.65;11.35;;;16.80;99.90;;;;;;5052014;28;20057;-57
2022/10/17 11:33:01;;;;;;;11.85;9.60;;;16.80;99.90;;;;;;5055063;28;20048;-58
2022/10/17 11:35:32;;;;;;;12.60;10.40;;;16.80;99.90;;;;;;5053899;28;20085;-59
2022/10/17 11:38:28;;;;;;;13.02;10.45;;;16.80;99.90;;;;;;5055718;28;20040;-58
2022/10/17 11:40:57;;;;;;;9.90;8.98;;;16.80;99.90;;;;;;5056734;28;20036;-59
2022/10/17 11:43:34;;;;;;;11.77;10.45;;;16.80;99.90;;;;;;5054530;28;20037;-59
2022/10/17 11:46:22;;;;;;;14.60;10.05;;;16.90;99.90;;;;;;5054448;28;20486;-57
2022/10/17 11:49:09;;;;;;;10.70;9.57;;;16.90;99.90;;;;;;5053767;28;20048;-58
2022/10/17 11:51:42;;;;;;;9.93;8.93;;;16.90;99.90;;;;;;5054651;28;20120;-59
2022/10/17 11:54:14;;;;;;;10.80;8.80;;;16.90;99.90;;;;;;5056143;28;20048;-59
2022/10/17 11:56:57;;;;;;;10.73;8.45;;;16.90;99.90;;;;;;5059272;28;20064;-58
2022/10/17 11:59:42;;;;;;;10.50;7.60;;;16.90;99.90;;;;;;5056254;28;20037;-59
2022/10/17 12:02:15;;;;;;;9.23;7.45;;;16.90;99.90;;;;;;5055039;28;20521;-58
2022/10/17 12:05:18;;;;;;;8.13;7.40;;;16.80;99.90;;;;;;5054718;28;20562;-57
2022/10/17 12:08:00;;;;;;;7.22;6.38;;;16.80;99.90;;;;;;5056445;28;20094;-59
2022/10/17 12:10:46;;;;;;;7.60;6.65;;;16.80;99.90;;;;;;5053376;28;20494;-58
2022/10/17 12:13:27;;;;;;;8.63;7.78;;;16.80;99.90;;;;;;5055625;28;20040;-59
2022/10/17 12:15:54;;;;;;;10.95;8.38;;;16.80;99.90;;;;;;5058474;28;20298;-59
2022/10/17 12:18:24;;;;;;;6.95;6.30;;;16.80;99.90;;;;;;5056176;28;20409;-59
2022/10/17 12:20:59;;;;;;;7.82;7.03;;;16.80;99.90;;;;;;5057929;28;20049;-57
2022/10/17 12:23:31;;;;;;;7.82;6.60;;;16.80;99.90;;;;;;5056221;28;20033;-58
2022/10/17 12:26:00;;;;;;;5.65;5.18;;;16.80;99.90;;;;;;5052179;28;20525;-59
2022/10/17 12:28:46;;;;;;;5.63;5.13;;;16.80;99.90;;;;;;5056205;28;20417;-59
2022/10/17 12:31:21;;;;;;;6.25;5.30;;;16.80;99.90;;;;;;5053407;28;20335;-59
2022/10/17 12:34:00;;;;;;;15.98;5.88;;;16.80;99.90;;;;;;5054518;28;20494;-58
2022/10/17 12:36:26;;;;;;;8.45;6.10;;;16.80;99.90;;;;;;5054816;28;20036;-58
2022/10/17 12:39:01;;;;;;;5.88;5.38;;;16.80;99.90;;;;;;5054998;28;20048;-58
2022/10/17 12:41:38;;;;;;;7.63;5.88;;;16.80;99.90;;;;;;5054095;28;20136;-57
2022/10/17 12:44:13;;;;;;;7.22;6.20;;;16.90;99.90;;;;;;5050843;28;20521;-59
2022/10/17 12:46:50;;;;;;;8.77;7.25;;;16.90;99.90;;;;;;5051816;28;20033;-57
2022/10/17 12:49:37;;;;;;;6.13;5.63;;;17.00;99.90;;;;;;5053786;28;20461;-59
2022/10/17 12:52:28;;;;;;;7.90;6.60;;;17.00;99.90;;;;;;5056394;28;20037;-58
2022/10/17 12:55:08;;;;;;;9.55;7.20;;;17.10;99.90;;;;;;5056446;28;20047;-58
2022/10/17 12:58:00;;;;;;;7.22;6.63;;;17.10;99.90;;;;;;5054652;28;20393;-59
2022/10/17 13:00:40;;;;;;;7.13;6.47;;;17.10;99.90;;;;;;5053840;28;20513;-59